createdAt,value
2023-04-16T04:15:31.651Z,60.50
2023-04-16T04:16:31.670Z,59.00
2023-04-16T04:17:31.694Z,54.30
2023-04-16T04:18:31.642Z,56.90
2023-04-16T04:19:31.593Z,57.30
2023-04-16T04:20:31.583Z,56.10
2023-04-16T04:21:31.596Z,58.40
2023-04-16T04:22:31.560Z,55.00
2023-04-16T04:23:31.545Z,50.90
2023-04-16T04:24:31.524Z,51.30
2023-04-16T04:25:31.512Z,50.40
2023-04-16T04:26:31.598Z,55.30
2023-04-16T04:27:31.497Z,52.80
2023-04-16T04:28:31.471Z,49.70
2023-04-16T04:29:31.462Z,50.20
2023-04-16T04:30:31.454Z,59.30
2023-04-16T04:31:31.506Z,52.30
2023-04-16T04:32:31.450Z,54.90
2023-04-16T04:33:31.426Z,54.40
2023-04-16T04:34:31.392Z,59.20
2023-04-16T04:35:31.409Z,51.80
2023-04-16T04:36:31.387Z,59.00
2023-04-16T04:37:31.359Z,52.30
2023-04-16T04:38:31.339Z,50.10
2023-04-16T04:39:31.339Z,51.30
2023-04-16T04:40:31.323Z,50.10
2023-04-16T04:41:31.325Z,57.20
2023-04-16T04:42:31.287Z,56.80
2023-04-16T04:43:31.290Z,53.50
2023-04-16T04:44:31.269Z,55.00
2023-04-16T04:45:32.093Z,55.40
2023-04-16T04:46:31.248Z,56.90
2023-04-16T04:47:31.238Z,57.40
2023-04-16T04:48:31.207Z,56.60
2023-04-16T04:49:31.203Z,56.10
2023-04-16T04:50:31.188Z,56.00
2023-04-16T04:51:31.198Z,50.90
2023-04-16T04:52:31.187Z,55.30
2023-04-16T04:53:31.146Z,54.10
2023-04-16T04:54:31.131Z,59.60
2023-04-16T04:55:31.125Z,54.60
2023-04-16T04:56:31.135Z,56.00
2023-04-16T04:57:31.091Z,47.20
2023-04-16T04:58:31.079Z,52.80
2023-04-16T04:59:31.064Z,54.90
2023-04-16T05:00:31.049Z,59.40
2023-04-16T05:01:31.103Z,58.30
2023-04-16T05:02:31.126Z,54.10
2023-04-16T05:03:31.103Z,55.00
2023-04-16T05:04:31.003Z,55.60
2023-04-16T05:05:30.992Z,57.60
2023-04-16T05:06:30.997Z,50.00
2023-04-16T05:07:30.968Z,55.40
2023-04-16T05:08:30.951Z,49.10
2023-04-16T05:09:30.942Z,51.30
2023-04-16T05:10:30.919Z,51.70
2023-04-16T05:11:30.919Z,57.90
2023-04-16T05:12:30.888Z,54.40
2023-04-16T05:13:30.891Z,51.90
2023-04-16T05:14:30.869Z,52.30
2023-04-16T05:15:30.855Z,50.10
2023-04-16T05:16:30.910Z,51.10
2023-04-16T05:17:37.981Z,53.40
2023-04-16T05:18:30.809Z,54.80
2023-04-16T05:19:30.824Z,55.60
2023-04-16T05:20:30.789Z,49.50
2023-04-16T05:21:30.792Z,51.70
2023-04-16T05:22:30.759Z,50.40
2023-04-16T05:23:30.754Z,54.90
2023-04-16T05:24:30.738Z,53.20
2023-04-16T05:25:30.722Z,53.50
2023-04-16T05:26:30.714Z,51.30
2023-04-16T05:27:30.695Z,50.10
2023-04-16T05:28:30.931Z,50.40
2023-04-16T05:29:30.681Z,51.40
2023-04-16T05:30:30.668Z,52.00
2023-04-16T05:31:30.659Z,55.70
2023-04-16T05:32:30.660Z,54.40
2023-04-16T05:33:30.623Z,53.30
2023-04-16T05:34:30.609Z,56.00
2023-04-16T05:35:30.591Z,55.60
2023-04-16T05:36:30.591Z,55.20
2023-04-16T05:37:30.564Z,57.60
2023-04-16T05:38:30.542Z,52.20
2023-04-16T05:39:30.533Z,49.30
2023-04-16T05:40:30.534Z,52.60
2023-04-16T05:41:30.517Z,56.20
2023-04-16T05:42:30.514Z,56.30
2023-04-16T05:43:30.484Z,56.40
2023-04-16T05:44:30.460Z,59.30
2023-04-16T05:45:30.457Z,55.00
2023-04-16T05:46:30.466Z,54.80
2023-04-16T05:47:30.450Z,60.30
2023-04-16T05:48:30.419Z,57.20
2023-04-16T05:49:30.402Z,53.90
2023-04-16T05:50:30.385Z,55.30
2023-04-16T05:51:30.383Z,56.30
2023-04-16T05:52:30.369Z,60.10
2023-04-16T05:53:30.351Z,59.00
2023-04-16T05:54:30.330Z,59.60
2023-04-16T05:55:30.327Z,56.50
2023-04-16T05:56:30.331Z,51.70
2023-04-16T05:57:30.299Z,59.60
2023-04-16T05:58:30.278Z,55.70
2023-04-16T05:59:30.262Z,55.90
2023-04-16T06:00:30.272Z,53.80
2023-04-16T06:01:30.265Z,56.20
2023-04-16T06:02:30.348Z,50.50
2023-04-16T06:03:30.469Z,55.70
2023-04-16T06:04:30.202Z,54.80
2023-04-16T06:05:30.330Z,52.90
2023-04-16T06:06:30.188Z,51.90
2023-04-16T06:07:30.161Z,56.40
2023-04-16T06:08:30.148Z,53.20
2023-04-16T06:09:30.126Z,54.10
2023-04-16T06:10:30.141Z,47.70
2023-04-16T06:11:30.302Z,50.80
2023-04-16T06:12:30.105Z,49.80
2023-04-16T06:13:30.077Z,52.50
2023-04-16T06:14:30.069Z,51.20
2023-04-16T06:15:30.050Z,47.20
2023-04-16T06:16:30.089Z,49.80
2023-04-16T06:17:30.065Z,50.40
2023-04-16T06:18:30.018Z,43.80
2023-04-16T06:19:30.008Z,48.90
2023-04-16T06:20:30.001Z,47.60
2023-04-16T06:21:29.983Z,47.30
2023-04-16T06:22:29.965Z,51.30
2023-04-16T06:23:29.946Z,46.50
2023-04-16T06:24:29.935Z,51.10
2023-04-16T06:25:29.916Z,50.30
2023-04-16T06:26:29.914Z,46.70
2023-04-16T06:27:29.918Z,46.60
2023-04-16T06:28:29.880Z,50.20
2023-04-16T06:29:40.709Z,46.80
2023-04-16T06:30:30.853Z,47.20
2023-04-16T06:31:29.921Z,45.70
2023-04-16T06:32:29.869Z,43.60
2023-04-16T06:33:29.811Z,48.10
2023-04-16T06:34:29.811Z,44.10
2023-04-16T06:35:29.782Z,51.30
2023-04-16T06:36:29.784Z,46.10
2023-04-16T06:37:29.756Z,43.20
2023-04-16T06:38:29.753Z,46.50
2023-04-16T06:39:29.724Z,43.90
2023-04-16T06:40:29.731Z,41.90
2023-04-16T06:41:29.727Z,42.10
2023-04-16T06:42:29.711Z,50.70
2023-04-16T06:43:29.687Z,44.50
2023-04-16T06:44:29.685Z,43.20
2023-04-16T06:45:29.649Z,45.90
2023-04-16T06:46:29.694Z,43.00
2023-04-16T06:47:29.714Z,45.10
2023-04-16T06:48:29.612Z,47.30
2023-04-16T06:49:29.600Z,46.90
2023-04-16T06:50:29.602Z,46.20
2023-04-16T06:51:29.601Z,47.10
2023-04-16T06:52:29.557Z,44.70
2023-04-16T06:53:29.543Z,41.70
2023-04-16T06:54:29.543Z,45.20
2023-04-16T06:55:29.518Z,46.60
2023-04-16T06:56:29.524Z,44.50
2023-04-16T06:57:29.491Z,41.30
2023-04-16T06:58:29.496Z,42.20
2023-04-16T06:59:29.467Z,47.40
2023-04-16T07:00:29.465Z,48.50
2023-04-16T07:01:29.539Z,45.10
2023-04-16T07:02:29.610Z,45.40
2023-04-16T07:03:29.597Z,49.20
2023-04-16T07:04:29.439Z,42.50
2023-04-16T07:05:29.437Z,44.30
2023-04-16T07:06:29.399Z,44.90
2023-04-16T07:07:29.361Z,48.10
2023-04-16T07:08:29.354Z,43.80
2023-04-16T07:09:29.336Z,43.20
2023-04-16T07:10:29.348Z,41.40
2023-04-16T07:11:29.323Z,47.10
2023-04-16T07:12:29.298Z,42.80
2023-04-16T07:13:29.293Z,45.60
2023-04-16T07:14:29.281Z,44.30
2023-04-16T07:15:29.262Z,47.00
2023-04-16T07:16:29.330Z,46.10
2023-04-16T07:17:29.260Z,43.80
2023-04-16T07:18:29.231Z,45.00
2023-04-16T07:19:29.209Z,48.90
2023-04-16T07:20:29.202Z,45.90
2023-04-16T07:21:29.221Z,44.10
2023-04-16T07:22:29.179Z,46.50
2023-04-16T07:23:29.167Z,46.70
2023-04-16T07:24:29.148Z,45.70
2023-04-16T07:25:29.126Z,50.10
2023-04-16T07:26:29.183Z,47.40
2023-04-16T07:27:29.128Z,46.80
2023-04-16T07:28:29.105Z,51.00
2023-04-16T07:29:29.082Z,52.60
2023-04-16T07:30:29.096Z,52.60
2023-04-16T07:31:29.124Z,49.50
2023-04-16T07:32:29.119Z,49.50
2023-04-16T07:33:29.034Z,50.90
2023-04-16T07:34:29.019Z,48.30
2023-04-16T07:35:29.001Z,54.10
2023-04-16T07:36:29.013Z,51.00
2023-04-16T07:37:28.975Z,44.50
2023-04-16T07:38:29.032Z,48.40
2023-04-16T07:39:28.951Z,49.20
2023-04-16T07:40:28.943Z,45.50
2023-04-16T07:41:28.946Z,45.70
2023-04-16T07:42:28.910Z,43.60
2023-04-16T07:43:28.897Z,44.40
2023-04-16T07:44:28.892Z,44.30
2023-04-16T07:45:28.879Z,43.40
2023-04-16T07:46:39.387Z,45.70
2023-04-16T07:47:29.879Z,49.00
2023-04-16T07:48:28.849Z,41.80
2023-04-16T07:49:28.828Z,41.30
2023-04-16T07:50:28.822Z,42.80
2023-04-16T07:51:28.811Z,44.20
2023-04-16T07:52:28.791Z,44.50
2023-04-16T07:53:28.762Z,44.80
2023-04-16T07:54:29.283Z,40.90
2023-04-16T07:55:28.745Z,47.00
2023-04-16T07:56:28.745Z,41.60
2023-04-16T07:57:28.713Z,42.10
2023-04-16T07:58:28.709Z,42.70
2023-04-16T07:59:28.876Z,42.50
2023-04-16T08:00:28.690Z,42.10
2023-04-16T08:01:28.668Z,43.70
2023-04-16T08:02:28.797Z,41.60
2023-04-16T08:03:28.827Z,43.30
2023-04-16T08:04:28.846Z,43.30
2023-04-16T08:05:28.639Z,39.90
2023-04-16T08:06:28.616Z,42.30
2023-04-16T08:07:28.587Z,43.20
2023-04-16T08:08:28.575Z,41.20
2023-04-16T08:09:28.568Z,42.90
2023-04-16T08:10:28.552Z,43.20
2023-04-16T08:11:28.555Z,40.90
2023-04-16T08:12:28.518Z,40.80
2023-04-16T08:13:28.503Z,42.00
2023-04-16T08:14:28.493Z,41.80
2023-04-16T08:15:28.510Z,40.90
2023-04-16T08:16:28.499Z,41.90
2023-04-16T08:17:28.524Z,39.50
2023-04-16T08:18:28.441Z,40.10
2023-04-16T08:19:28.429Z,41.20
2023-04-16T08:20:28.409Z,45.50
2023-04-16T08:21:28.433Z,37.90
2023-04-16T08:22:28.383Z,43.00
2023-04-16T08:23:28.376Z,40.30
2023-04-16T08:24:28.364Z,40.70
2023-04-16T08:25:28.356Z,42.30
2023-04-16T08:26:28.345Z,40.40
2023-04-16T08:27:28.336Z,38.60
2023-04-16T08:28:28.313Z,42.30
2023-04-16T08:29:28.318Z,38.90
2023-04-16T08:30:28.275Z,38.80
2023-04-16T08:31:28.318Z,39.60
2023-04-16T08:32:28.274Z,36.50
2023-04-16T08:33:28.244Z,40.40
2023-04-16T08:34:28.217Z,40.00
2023-04-16T08:35:28.224Z,40.50
2023-04-16T08:36:28.210Z,43.20
2023-04-16T08:37:28.197Z,37.10
2023-04-16T08:38:28.179Z,36.30
2023-04-16T08:39:28.163Z,40.70
2023-04-16T08:40:28.144Z,38.20
2023-04-16T08:41:28.146Z,37.50
2023-04-16T08:42:28.113Z,42.10
2023-04-16T08:43:28.105Z,41.00
2023-04-16T08:44:28.087Z,39.50
2023-04-16T08:45:28.093Z,35.70
2023-04-16T08:46:28.130Z,37.30
2023-04-16T08:47:28.083Z,36.30
2023-04-16T08:48:28.053Z,38.10
2023-04-16T08:49:28.024Z,40.10
2023-04-16T08:50:28.004Z,36.20
2023-04-16T08:51:28.011Z,40.20
2023-04-16T08:52:27.985Z,35.40
2023-04-16T08:53:27.964Z,38.10
2023-04-16T08:54:27.949Z,39.10
2023-04-16T08:55:27.944Z,40.30
2023-04-16T08:56:27.943Z,37.60
2023-04-16T08:57:27.910Z,40.90
2023-04-16T08:58:27.891Z,39.20
2023-04-16T08:59:27.885Z,38.40
2023-04-16T09:00:27.891Z,38.20
2023-04-16T09:01:27.912Z,39.60
2023-04-16T09:02:27.994Z,38.30
2023-04-16T09:03:27.901Z,39.30
2023-04-16T09:04:27.900Z,36.80
2023-04-16T09:05:27.824Z,39.20
2023-04-16T09:06:27.805Z,35.90
2023-04-16T09:07:27.779Z,35.00
2023-04-16T09:08:27.764Z,35.70
2023-04-16T09:09:27.747Z,37.20
2023-04-16T09:10:27.732Z,34.20
2023-04-16T09:11:27.731Z,30.70
2023-04-16T09:12:27.705Z,32.70
2023-04-16T09:13:27.699Z,34.70
2023-04-16T09:14:27.683Z,35.90
2023-04-16T09:15:27.676Z,34.50
2023-04-16T09:16:27.677Z,34.10
2023-04-16T09:17:27.674Z,34.20
2023-04-16T09:18:27.627Z,32.50
2023-04-16T09:19:27.626Z,33.40
2023-04-16T09:20:27.601Z,35.20
2023-04-16T09:21:27.608Z,35.90
2023-04-16T09:22:27.575Z,31.30
2023-04-16T09:23:27.568Z,32.90
2023-04-16T09:24:27.551Z,32.10
2023-04-16T09:25:27.543Z,33.70
2023-04-16T09:26:27.541Z,33.60
2023-04-16T09:27:27.516Z,33.50
2023-04-16T09:28:27.493Z,31.50
2023-04-16T09:29:27.487Z,38.60
2023-04-16T09:30:27.536Z,34.30
2023-04-16T09:31:27.541Z,35.00
2023-04-16T09:32:27.586Z,32.20
2023-04-16T09:33:27.427Z,34.60
2023-04-16T09:34:27.421Z,34.90
2023-04-16T09:35:27.402Z,34.40
2023-04-16T09:36:27.400Z,36.10
2023-04-16T09:37:27.370Z,31.80
2023-04-16T09:38:27.361Z,33.50
2023-04-16T09:39:27.366Z,31.40
2023-04-16T09:40:27.443Z,25.50
2023-04-16T09:41:27.332Z,27.10
2023-04-16T09:42:27.366Z,28.30
2023-04-16T09:43:27.295Z,34.30
2023-04-16T09:44:27.283Z,30.40
2023-04-16T09:45:27.284Z,30.30
2023-04-16T09:46:27.283Z,34.30
2023-04-16T09:47:27.266Z,29.50
2023-04-16T09:48:27.235Z,31.50
2023-04-16T09:49:27.215Z,31.90
2023-04-16T09:50:27.222Z,32.30
2023-04-16T09:51:27.211Z,30.30
2023-04-16T09:52:27.167Z,32.10
2023-04-16T09:53:27.166Z,30.00
2023-04-16T09:54:27.154Z,28.90
2023-04-16T09:55:27.160Z,30.50
2023-04-16T09:56:27.128Z,31.20
2023-04-16T09:57:27.127Z,29.80
2023-04-16T09:58:27.097Z,28.00
2023-04-16T09:59:27.094Z,28.30
2023-04-16T10:00:27.079Z,29.20
2023-04-16T10:01:27.091Z,27.30
2023-04-16T10:02:27.111Z,26.70
2023-04-16T10:03:27.121Z,25.70
2023-04-16T10:04:27.048Z,25.30
2023-04-16T10:05:27.012Z,25.70
2023-04-16T10:06:26.995Z,26.80
2023-04-16T10:07:26.976Z,28.90
2023-04-16T10:08:26.970Z,26.10
2023-04-16T10:09:26.946Z,26.50
2023-04-16T10:10:26.960Z,27.10
2023-04-16T10:11:26.929Z,26.60
2023-04-16T10:12:26.918Z,26.90
2023-04-16T10:13:26.902Z,28.90
2023-04-16T10:14:26.916Z,29.40
2023-04-16T10:15:26.872Z,26.90
2023-04-16T10:16:27.003Z,26.60
2023-04-16T10:17:26.862Z,27.20
2023-04-16T10:18:26.827Z,24.80
2023-04-16T10:19:26.819Z,25.50
2023-04-16T10:20:26.825Z,24.80
2023-04-16T10:21:26.793Z,22.70
2023-04-16T10:22:26.780Z,23.80
2023-04-16T10:23:26.765Z,25.70
2023-04-16T10:24:26.753Z,26.10
2023-04-16T10:25:26.747Z,22.90
2023-04-16T10:26:26.726Z,25.00
2023-04-16T10:27:26.713Z,27.20
2023-04-16T10:28:26.702Z,22.00
2023-04-16T10:29:26.716Z,25.80
2023-04-16T10:30:26.697Z,20.30
2023-04-16T10:31:26.702Z,22.30
2023-04-16T10:32:26.673Z,20.50
2023-04-16T10:33:26.626Z,20.80
2023-04-16T10:34:26.633Z,21.50
2023-04-16T10:35:26.597Z,17.60
2023-04-16T10:36:26.606Z,17.90
2023-04-16T10:37:26.585Z,22.30
2023-04-16T10:38:26.575Z,18.60
2023-04-16T10:39:26.562Z,20.70
2023-04-16T10:40:26.658Z,20.40
2023-04-16T10:41:26.531Z,17.70
2023-04-16T10:42:26.516Z,17.30
2023-04-16T10:43:26.493Z,18.00
2023-04-16T10:44:26.493Z,16.00
2023-04-16T10:45:26.468Z,16.40
2023-04-16T10:46:26.605Z,20.20
2023-04-16T10:47:26.463Z,16.10
2023-04-16T10:48:30.785Z,16.30
2023-04-16T10:49:27.435Z,17.90
2023-04-16T10:50:26.416Z,21.00
2023-04-16T10:51:26.418Z,22.20
2023-04-16T10:52:26.386Z,23.50
2023-04-16T10:53:26.365Z,28.30
2023-04-16T10:54:26.385Z,25.20
2023-04-16T10:55:26.336Z,25.00
2023-04-16T10:56:26.344Z,25.90
2023-04-16T10:57:26.302Z,28.50
2023-04-16T10:58:26.302Z,24.90
2023-04-16T10:59:26.304Z,27.60
2023-04-16T11:00:26.276Z,25.00
2023-04-16T11:01:26.273Z,25.70
2023-04-16T11:02:27.757Z,28.00
2023-04-16T11:03:26.465Z,29.50
2023-04-16T11:04:26.313Z,25.10
2023-04-16T11:05:26.220Z,25.50
2023-04-16T11:06:26.202Z,28.30
2023-04-16T11:07:26.173Z,23.40
2023-04-16T11:08:26.432Z,28.80
2023-04-16T11:09:26.163Z,24.60
2023-04-16T11:10:26.162Z,24.90
2023-04-16T11:11:26.124Z,25.70
2023-04-16T11:12:26.114Z,24.30
2023-04-16T11:13:26.101Z,26.70
2023-04-16T11:14:26.083Z,22.50
2023-04-16T11:15:26.072Z,25.90
2023-04-16T11:16:26.182Z,23.90
2023-04-16T11:18:16.783Z,24.20
2023-04-16T11:19:16.763Z,22.40
2023-04-16T11:20:20.155Z,21.60
2023-04-16T11:21:16.746Z,23.50
2023-04-16T11:22:16.761Z,22.00
2023-04-16T11:23:16.715Z,22.20
2023-04-16T11:24:16.705Z,23.60
2023-04-16T11:25:16.705Z,20.10
2023-04-16T11:26:16.681Z,19.40
2023-04-16T11:27:16.680Z,20.10
2023-04-16T11:28:16.652Z,20.30
2023-04-16T11:29:16.635Z,22.10
2023-04-16T11:30:16.644Z,20.00
2023-04-16T11:31:16.694Z,20.80
2023-04-16T11:32:16.597Z,19.50
2023-04-16T11:33:16.607Z,19.90
2023-04-16T11:34:16.579Z,20.00
2023-04-16T11:35:16.577Z,19.00
2023-04-16T11:36:16.551Z,19.30
2023-04-16T11:37:16.541Z,21.10
2023-04-16T11:38:16.528Z,17.70
2023-04-16T11:39:16.510Z,17.40
2023-04-16T11:40:16.537Z,19.30
2023-04-16T11:41:16.503Z,16.90
2023-04-16T11:42:16.527Z,18.10
2023-04-16T11:43:16.533Z,17.30
2023-04-16T11:44:16.447Z,17.10
2023-04-16T11:45:16.459Z,16.20
2023-04-16T11:46:26.753Z,14.70
2023-04-16T11:47:17.468Z,19.30
2023-04-16T11:48:16.463Z,16.40
2023-04-16T11:49:16.395Z,15.10
2023-04-16T11:50:16.423Z,19.20
2023-04-16T11:51:16.390Z,15.70
2023-04-16T11:52:16.348Z,17.60
2023-04-16T11:53:16.331Z,15.10
2023-04-16T11:54:16.316Z,16.50
2023-04-16T11:55:16.316Z,15.90
2023-04-16T11:56:16.296Z,15.90
2023-04-16T11:57:16.279Z,17.30
2023-04-16T11:58:16.313Z,15.50
2023-04-16T11:59:16.255Z,15.50
2023-04-16T12:00:16.264Z,16.60
2023-04-16T12:01:16.272Z,16.10
2023-04-16T12:02:16.240Z,16.30
2023-04-16T12:03:16.473Z,16.30
2023-04-16T12:04:16.497Z,16.00
2023-04-16T12:05:16.259Z,14.60
2023-04-16T12:06:16.181Z,15.30
2023-04-16T12:07:16.150Z,15.40
2023-04-16T12:08:16.168Z,15.10
2023-04-16T12:09:16.139Z,14.30
2023-04-16T12:10:16.134Z,17.40
2023-04-16T12:11:16.099Z,17.70
2023-04-16T12:12:16.097Z,15.00
2023-04-16T12:13:16.104Z,14.70
2023-04-16T12:14:16.066Z,15.70
2023-04-16T12:15:16.066Z,17.40
2023-04-16T12:16:16.077Z,17.00
2023-04-16T12:17:16.029Z,15.50
2023-04-16T12:18:16.115Z,17.20
2023-04-16T12:19:16.030Z,15.60
2023-04-16T12:20:15.985Z,15.90
2023-04-16T12:21:15.971Z,16.40
2023-04-16T12:22:15.969Z,17.70
2023-04-16T12:23:15.945Z,17.70
2023-04-16T12:24:15.947Z,15.90
2023-04-16T12:25:15.983Z,16.50
2023-04-16T12:26:15.969Z,16.70
2023-04-16T12:27:15.944Z,17.80
2023-04-16T12:28:15.893Z,17.00
2023-04-16T12:29:15.921Z,16.00
2023-04-16T12:30:15.857Z,15.30
2023-04-16T12:31:15.976Z,16.60
2023-04-16T12:32:15.850Z,17.50
2023-04-16T12:33:15.904Z,20.80
2023-04-16T12:34:15.848Z,18.60
2023-04-16T12:35:15.820Z,16.10
2023-04-16T12:36:15.788Z,17.90
2023-04-16T12:37:15.777Z,18.40
2023-04-16T12:38:15.777Z,18.70
2023-04-16T12:39:15.796Z,16.30
2023-04-16T12:40:15.745Z,16.90
2023-04-16T12:41:15.716Z,15.00
2023-04-16T12:42:15.706Z,18.00
2023-04-16T12:43:15.698Z,17.90
2023-04-16T12:44:15.679Z,16.80
2023-04-16T12:45:15.666Z,16.70
2023-04-16T12:46:15.669Z,16.50
2023-04-16T12:47:15.636Z,15.80
2023-04-16T12:48:15.633Z,16.80
2023-04-16T12:49:15.615Z,16.70
2023-04-16T12:50:15.619Z,17.10
2023-04-16T12:51:15.597Z,17.40
2023-04-16T12:52:15.566Z,17.30
2023-04-16T12:53:15.560Z,15.90
2023-04-16T12:54:15.556Z,16.20
2023-04-16T12:55:15.546Z,17.80
2023-04-16T12:56:15.514Z,16.10
2023-04-16T12:57:15.496Z,18.00
2023-04-16T12:58:15.512Z,17.70
2023-04-16T12:59:15.481Z,17.90
2023-04-16T13:00:15.481Z,18.00
2023-04-16T13:01:15.457Z,18.60
2023-04-16T13:02:15.505Z,18.80
2023-04-16T13:03:15.684Z,18.20
2023-04-16T13:04:15.494Z,19.80
2023-04-16T13:05:15.410Z,17.50
2023-04-16T13:06:15.382Z,19.90
2023-04-16T13:07:15.366Z,17.70
2023-04-16T13:08:15.370Z,16.20
2023-04-16T13:09:15.356Z,16.70
2023-04-16T13:10:15.370Z,22.60
2023-04-16T13:11:15.323Z,16.90
2023-04-16T13:12:15.324Z,17.50
2023-04-16T13:13:15.293Z,17.30
2023-04-16T13:14:15.283Z,15.90
2023-04-16T13:15:15.271Z,18.70
2023-04-16T13:16:15.326Z,19.50
2023-04-16T13:17:15.241Z,16.60
2023-04-16T13:18:15.241Z,17.70
2023-04-16T13:19:15.216Z,18.10
2023-04-16T13:20:15.229Z,18.00
2023-04-16T13:21:15.197Z,21.90
2023-04-16T13:22:15.184Z,19.10
2023-04-16T13:23:15.162Z,19.10
2023-04-16T13:24:15.171Z,22.50
2023-04-16T13:25:15.165Z,18.90
2023-04-16T13:26:15.129Z,18.60
2023-04-16T13:27:15.118Z,22.50
2023-04-16T13:28:15.098Z,17.90
2023-04-16T13:29:15.086Z,20.30
2023-04-16T13:30:15.084Z,16.90
2023-04-16T13:31:15.086Z,20.50
2023-04-16T13:32:15.059Z,19.90
2023-04-16T13:33:15.034Z,19.40
2023-04-16T13:34:15.022Z,18.80
2023-04-16T13:35:15.016Z,18.30
2023-04-16T13:36:15.000Z,17.80
2023-04-16T13:37:14.976Z,14.90
2023-04-16T13:38:14.978Z,16.80
2023-04-16T13:39:14.952Z,17.10
2023-04-16T13:40:14.958Z,14.80
2023-04-16T13:41:14.923Z,15.40
2023-04-16T13:42:14.917Z,14.90
2023-04-16T13:43:14.892Z,15.00
2023-04-16T13:44:14.890Z,13.60
2023-04-16T13:45:14.879Z,15.70
2023-04-16T13:46:14.887Z,14.20
2023-04-16T13:47:14.839Z,15.30
2023-04-16T13:48:14.842Z,14.60
2023-04-16T13:49:14.868Z,14.60
2023-04-16T13:50:14.815Z,13.40
2023-04-16T13:51:14.845Z,20.10
2023-04-16T13:52:14.785Z,16.20
2023-04-16T13:53:14.764Z,15.70
2023-04-16T13:54:14.753Z,14.40
2023-04-16T13:55:14.771Z,13.90
2023-04-16T13:56:14.736Z,15.30
2023-04-16T13:57:14.726Z,13.90
2023-04-16T13:58:14.712Z,16.60
2023-04-16T13:59:14.699Z,14.80
2023-04-16T14:00:14.682Z,15.80
2023-04-16T14:01:14.715Z,15.20
2023-04-16T14:02:14.709Z,13.60
2023-04-16T14:03:14.709Z,13.30
2023-04-16T14:04:14.765Z,17.80
2023-04-16T14:05:14.612Z,15.70
2023-04-16T14:06:14.629Z,14.70
2023-04-16T14:07:14.577Z,15.00
2023-04-16T14:08:14.580Z,13.10
2023-04-16T14:09:14.590Z,14.20
2023-04-16T14:10:14.553Z,14.30
2023-04-16T14:11:14.540Z,14.40
2023-04-16T14:12:14.533Z,12.60
2023-04-16T14:13:14.499Z,13.20
2023-04-16T14:14:14.503Z,13.70
2023-04-16T14:15:14.486Z,14.10
2023-04-16T14:16:14.499Z,14.40
2023-04-16T14:17:14.446Z,13.90
2023-04-16T14:18:14.433Z,14.90
2023-04-16T14:19:14.444Z,14.20
2023-04-16T14:20:14.425Z,14.20
2023-04-16T14:21:14.401Z,14.60
2023-04-16T14:22:14.388Z,13.80
2023-04-16T14:23:14.374Z,14.10
2023-04-16T14:24:14.370Z,12.70
2023-04-16T14:25:14.354Z,14.50
2023-04-16T14:26:14.463Z,12.00
2023-04-16T14:27:14.324Z,12.90
2023-04-16T14:28:15.718Z,15.40
2023-04-16T14:29:14.312Z,13.90
2023-04-16T14:30:14.302Z,13.60
2023-04-16T14:31:14.288Z,16.10
2023-04-16T14:32:14.370Z,13.90
2023-04-16T14:33:14.248Z,14.60
2023-04-16T14:34:14.240Z,14.00
2023-04-16T14:35:14.244Z,13.70
2023-04-16T14:36:14.242Z,14.00
2023-04-16T14:37:14.189Z,12.60
2023-04-16T14:38:14.213Z,13.70
2023-04-16T14:39:14.180Z,14.20
2023-04-16T14:40:14.173Z,14.40
2023-04-16T14:41:14.130Z,15.80
2023-04-16T14:42:14.119Z,13.20
2023-04-16T14:43:14.100Z,13.00
2023-04-16T14:44:14.104Z,14.50
2023-04-16T14:45:14.142Z,12.60
2023-04-16T14:46:14.073Z,16.00
2023-04-16T14:47:14.053Z,12.80
2023-04-16T14:48:14.073Z,13.80
2023-04-16T14:49:14.194Z,14.50
2023-04-16T14:50:14.051Z,13.80
2023-04-16T14:51:13.998Z,14.50
2023-04-16T14:52:13.988Z,13.40
2023-04-16T14:53:13.986Z,13.50
2023-04-16T14:54:13.962Z,12.20
2023-04-16T14:55:13.950Z,12.40
2023-04-16T14:56:13.945Z,13.20
2023-04-16T14:57:13.919Z,12.70
2023-04-16T14:58:13.935Z,11.90
2023-04-16T14:59:13.898Z,12.10
2023-04-16T15:00:13.894Z,11.30
2023-04-16T15:01:13.920Z,12.70
2023-04-16T15:02:13.935Z,11.60
2023-04-16T15:03:14.032Z,11.10
2023-04-16T15:04:13.945Z,11.10
2023-04-16T15:05:13.831Z,12.20
2023-04-16T15:06:13.956Z,12.30
2023-04-16T15:07:13.814Z,11.00
2023-04-16T15:08:13.798Z,12.90
2023-04-16T15:09:13.763Z,11.30
2023-04-16T15:10:13.774Z,13.70
2023-04-16T15:11:13.746Z,14.20
2023-04-16T15:12:13.835Z,14.40
2023-04-16T15:13:13.713Z,12.90
2023-04-16T15:14:13.732Z,14.40
2023-04-16T15:15:13.727Z,15.10
2023-04-16T15:16:13.690Z,13.80
2023-04-16T15:17:13.661Z,12.10
2023-04-16T15:18:13.657Z,11.00
2023-04-16T15:19:13.638Z,13.90
2023-04-16T15:20:13.651Z,12.10
2023-04-16T15:21:13.622Z,11.10
2023-04-16T15:22:13.599Z,13.30
2023-04-16T15:23:13.588Z,13.60
2023-04-16T15:24:13.576Z,9.90
2023-04-16T15:25:13.585Z,12.30
2023-04-16T15:26:13.561Z,12.40
2023-04-16T15:27:13.532Z,12.90
2023-04-16T15:28:13.550Z,13.00
2023-04-16T15:29:13.510Z,19.20
2023-04-16T15:30:13.517Z,16.90
2023-04-16T15:31:13.517Z,17.40
2023-04-16T15:32:13.473Z,14.20
2023-04-16T15:33:13.454Z,11.00
2023-04-16T15:34:13.472Z,12.40
2023-04-16T15:35:13.450Z,16.10
2023-04-16T15:36:13.427Z,11.30
2023-04-16T15:37:13.444Z,12.80
2023-04-16T15:38:13.402Z,11.50
2023-04-16T15:39:13.556Z,10.60
2023-04-16T15:40:13.389Z,12.70
2023-04-16T15:41:13.361Z,12.60
2023-04-16T15:42:13.416Z,13.20
2023-04-16T15:43:13.326Z,12.20
2023-04-16T15:44:13.324Z,12.30
2023-04-16T15:45:13.304Z,13.90
2023-04-16T15:46:13.350Z,11.20
2023-04-16T15:47:13.285Z,10.90
2023-04-16T15:48:13.331Z,12.50
2023-04-16T15:49:13.260Z,12.50
2023-04-16T15:50:13.273Z,13.40
2023-04-16T15:51:13.227Z,12.00
2023-04-16T15:52:13.222Z,10.90
2023-04-16T15:53:13.206Z,12.80
2023-04-16T15:54:13.198Z,13.50
2023-04-16T15:55:13.194Z,15.00
2023-04-16T15:56:13.170Z,12.90
2023-04-16T15:57:13.152Z,15.90
2023-04-16T15:58:13.142Z,13.00
2023-04-16T15:59:13.216Z,14.20
2023-04-16T16:00:13.400Z,15.30
2023-04-16T16:01:13.101Z,13.90
2023-04-16T16:02:13.135Z,13.60
2023-04-16T16:03:13.167Z,14.50
2023-04-16T16:04:13.259Z,14.20
2023-04-16T16:05:13.072Z,15.10
2023-04-16T16:06:13.044Z,13.80
2023-04-16T16:07:13.025Z,14.70
2023-04-16T16:08:13.037Z,15.70
2023-04-16T16:09:13.082Z,14.40
2023-04-16T16:10:13.140Z,18.40
2023-04-16T16:11:12.965Z,16.40
2023-04-16T16:12:12.959Z,14.60
2023-04-16T16:13:12.974Z,14.90
2023-04-16T16:14:12.963Z,15.40
2023-04-16T16:15:12.932Z,14.20
2023-04-16T16:16:12.953Z,18.00
2023-04-16T16:17:12.906Z,18.60
2023-04-16T16:18:12.901Z,14.60
2023-04-16T16:19:12.867Z,18.90
2023-04-16T16:20:12.914Z,16.60
2023-04-16T16:21:12.847Z,14.50
2023-04-16T16:22:12.839Z,13.00
2023-04-16T16:23:12.818Z,14.20
2023-04-16T16:24:12.815Z,12.80
2023-04-16T16:25:12.799Z,16.90
2023-04-16T16:26:12.781Z,17.40
2023-04-16T16:27:12.774Z,16.80
2023-04-16T16:28:12.758Z,17.20
2023-04-16T16:29:12.909Z,15.80
2023-04-16T16:30:12.736Z,15.80
2023-04-16T16:31:12.798Z,15.60
2023-04-16T16:32:12.707Z,15.80
2023-04-16T16:33:12.682Z,18.40
2023-04-16T16:34:19.879Z,14.10
2023-04-16T16:35:13.673Z,15.00
2023-04-16T16:36:12.653Z,15.60
2023-04-16T16:37:12.625Z,14.60
2023-04-16T16:38:12.630Z,17.20
2023-04-16T16:39:12.713Z,16.10
2023-04-16T16:40:12.616Z,14.40
2023-04-16T16:41:12.582Z,14.30
2023-04-16T16:42:12.571Z,14.50
2023-04-16T16:43:12.621Z,15.60
2023-04-16T16:44:12.558Z,15.30
2023-04-16T16:45:12.542Z,15.40
2023-04-16T16:46:12.558Z,12.10
2023-04-16T16:47:12.500Z,14.70
2023-04-16T16:48:12.500Z,17.50
2023-04-16T16:49:12.582Z,14.70
2023-04-16T16:50:12.480Z,12.80
2023-04-16T16:51:12.453Z,13.30
2023-04-16T16:52:12.444Z,14.50
2023-04-16T16:53:12.435Z,13.50
2023-04-16T16:54:12.417Z,15.80
2023-04-16T16:55:12.415Z,12.20
2023-04-16T16:56:12.400Z,13.70
2023-04-16T16:57:12.377Z,13.80
2023-04-16T16:58:12.387Z,14.50
2023-04-16T16:59:12.550Z,13.90
2023-04-16T17:00:12.346Z,12.90
2023-04-16T17:01:12.398Z,14.10
2023-04-16T17:02:12.379Z,12.10
2023-04-16T17:03:12.408Z,14.30
2023-04-16T17:04:12.395Z,13.70
2023-04-16T17:05:12.281Z,16.10
2023-04-16T17:06:12.266Z,14.90
2023-04-16T17:07:12.249Z,14.50
2023-04-16T17:08:12.250Z,13.90